Time;durP1;ratioP1;P1;durP2;ratioP2;P2;SDS_P1;SDS_P2;PMS_P1;PMS_P2;Temp;Humidity;BMP_temperature;BMP_pressure;BME280_temperature;BME280_humidity;BME280_pressure;Samples;Min_cycle;Max_cycle;Signal;HPM_P1;HPM_P2
2022/09/28 00:00:24;;;;;;;4.75;4.00;;;16.80;90.40;;;;;;5071004;28;20036;-65
2022/09/28 00:02:50;;;;;;;5.32;4.53;;;16.70;90.30;;;;;;5069622;28;20029;-65
2022/09/28 00:05:15;;;;;;;5.60;4.50;;;16.80;90.30;;;;;;5071509;28;20025;-65
2022/09/28 00:07:41;;;;;;;5.32;4.47;;;16.80;90.20;;;;;;5058543;28;20103;-65
2022/09/28 00:10:08;;;;;;;5.38;4.13;;;16.70;90.20;;;;;;5069859;28;20044;-65
2022/09/28 00:12:34;;;;;;;4.78;4.15;;;16.80;90.20;;;;;;5070083;28;20021;-65
2022/09/28 00:15:00;;;;;;;5.50;4.10;;;16.80;90.20;;;;;;5067562;28;21978;-65
2022/09/28 00:17:25;;;;;;;5.32;4.28;;;16.80;90.20;;;;;;5068682;28;20028;-65
2022/09/28 00:19:51;;;;;;;6.05;4.25;;;16.70;90.20;;;;;;5068762;28;20036;-65
2022/09/28 00:22:17;;;;;;;5.35;4.38;;;16.70;90.20;;;;;;5068694;28;20035;-65
2022/09/28 00:24:43;;;;;;;5.47;4.40;;;16.80;90.10;;;;;;5068636;28;20029;-65
2022/09/28 00:27:09;;;;;;;5.30;4.07;;;16.80;90.10;;;;;;5070049;28;20027;-65
2022/09/28 00:29:36;;;;;;;4.97;4.20;;;16.80;90.10;;;;;;5060266;28;20032;-65
2022/09/28 00:32:05;;;;;;;5.03;4.07;;;16.70;90.00;;;;;;5066126;28;20030;-65
2022/09/28 00:34:39;;;;;;;6.00;4.55;;;16.80;90.00;;;;;;5063456;28;20031;-65
2022/09/28 00:37:07;;;;;;;5.10;4.47;;;16.80;90.00;;;;;;5069859;28;20028;-65
2022/09/28 00:39:34;;;;;;;5.60;4.57;;;16.80;90.00;;;;;;5059237;28;20479;-65
2022/09/28 00:42:01;;;;;;;5.63;4.47;;;16.80;90.00;;;;;;5064765;28;20114;-65
2022/09/28 00:44:29;;;;;;;5.38;4.43;;;16.80;90.00;;;;;;5070209;28;20091;-65
2022/09/28 00:47:11;;;;;;;4.65;3.72;;;16.80;90.00;;;;;;5068235;28;20115;-65
2022/09/28 00:49:46;;;;;;;5.55;4.28;;;16.80;89.90;;;;;;5066840;28;20556;-65
2022/09/28 00:52:17;;;;;;;5.32;4.30;;;16.80;89.90;;;;;;5067799;28;20032;-65
2022/09/28 00:54:45;;;;;;;5.13;3.95;;;16.80;89.90;;;;;;5062926;28;20020;-65
2022/09/28 00:57:12;;;;;;;5.70;4.80;;;16.80;89.80;;;;;;5069641;28;20044;-65
2022/09/28 00:59:38;;;;;;;6.35;4.78;;;16.80;89.80;;;;;;5060378;28;20055;-65
2022/09/28 01:02:04;;;;;;;5.75;4.57;;;16.80;89.70;;;;;;5070004;28;20028;-65
2022/09/28 01:04:30;;;;;;;5.93;4.63;;;16.80;89.60;;;;;;5066954;28;20017;-65
2022/09/28 01:06:57;;;;;;;5.65;4.38;;;16.80;89.70;;;;;;5066712;28;20024;-65
2022/09/28 01:09:25;;;;;;;6.20;4.78;;;16.80;89.60;;;;;;5067398;28;20468;-65
2022/09/28 01:11:51;;;;;;;5.25;4.38;;;16.80;89.60;;;;;;5069479;28;20032;-65
2022/09/28 01:14:18;;;;;;;5.85;4.03;;;16.80;89.70;;;;;;5068094;28;20052;-65
2022/09/28 01:17:14;;;;;;;5.90;4.70;;;16.80;89.80;;;;;;5069779;28;20032;-65
2022/09/28 01:20:05;;;;;;;4.47;4.00;;;16.80;89.80;;;;;;5062521;28;20027;-65
2022/09/28 01:22:40;;;;;;;5.50;4.28;;;16.80;89.80;;;;;;5068036;28;20032;-65
2022/09/28 01:25:34;;;;;;;5.20;4.35;;;16.80;90.00;;;;;;5068687;28;20117;-65
2022/09/28 01:28:15;;;;;;;5.00;4.28;;;16.80;89.80;;;;;;5064215;28;20081;-65
2022/09/28 01:30:57;;;;;;;5.82;4.65;;;16.80;90.00;;;;;;5068913;28;20446;-65
2022/09/28 01:33:27;;;;;;;5.03;4.28;;;16.80;90.00;;;;;;5065133;28;20029;-65
2022/09/28 01:36:05;;;;;;;4.93;4.38;;;16.80;90.10;;;;;;5069656;28;20031;-65
2022/09/28 01:39:00;;;;;;;4.82;4.10;;;16.80;90.10;;;;;;5059652;28;20031;-65
2022/09/28 01:41:29;;;;;;;6.22;4.72;;;16.80;90.10;;;;;;5066601;28;20045;-65
2022/09/28 01:44:01;;;;;;;5.50;4.50;;;16.80;90.10;;;;;;5069643;28;20361;-65
2022/09/28 01:46:43;;;;;;;6.28;3.80;;;16.80;90.00;;;;;;5069471;28;20028;-65
2022/09/28 01:49:21;;;;;;;6.18;4.47;;;16.80;90.00;;;;;;5067597;28;20119;-65
2022/09/28 01:51:55;;;;;;;5.38;4.28;;;16.80;90.00;;;;;;5068724;28;20036;-65
2022/09/28 01:54:31;;;;;;;4.57;3.88;;;16.80;90.00;;;;;;5064166;28;20017;-65
2022/09/28 01:57:15;;;;;;;5.38;4.38;;;16.80;90.00;;;;;;5065218;28;20524;-65
2022/09/28 02:00:00;;;;;;;5.35;4.20;;;16.80;90.10;;;;;;5065399;28;20035;-65
2022/09/28 02:02:31;;;;;;;5.40;4.25;;;16.80;90.10;;;;;;5064652;28;20056;-65
2022/09/28 02:05:00;;;;;;;6.35;4.70;;;16.70;90.10;;;;;;5064088;28;20040;-65
2022/09/28 02:07:39;;;;;;;5.10;4.60;;;16.70;90.10;;;;;;5064167;28;20025;-65
2022/09/28 02:10:26;;;;;;;5.68;4.53;;;16.80;90.10;;;;;;5066742;28;20025;-65
2022/09/28 02:13:11;;;;;;;5.53;4.38;;;16.70;90.10;;;;;;5066800;28;20025;-65
2022/09/28 02:15:41;;;;;;;5.65;4.50;;;16.70;90.10;;;;;;5068809;28;20063;-65
2022/09/28 02:18:08;;;;;;;6.07;4.72;;;16.70;90.20;;;;;;5077003;28;20040;-65
2022/09/28 02:20:37;;;;;;;5.90;4.60;;;16.70;90.20;;;;;;5071104;28;20047;-65
2022/09/28 02:23:04;;;;;;;6.57;4.88;;;16.70;90.20;;;;;;5063412;28;20028;-65
2022/09/28 02:25:57;;;;;;;5.68;4.82;;;16.70;90.20;;;;;;5065138;28;20029;-65
2022/09/28 02:28:23;;;;;;;5.70;4.80;;;16.70;90.10;;;;;;5070428;28;20013;-65
2022/09/28 02:30:49;;;;;;;6.10;4.47;;;16.70;90.30;;;;;;5067078;28;20993;-65
2022/09/28 02:33:20;;;;;;;5.00;4.13;;;16.70;90.30;;;;;;5069188;28;20031;-65
2022/09/28 02:35:46;;;;;;;5.75;4.57;;;16.70;90.30;;;;;;5072800;28;20033;-65
2022/09/28 02:38:13;;;;;;;5.38;4.50;;;16.70;90.30;;;;;;5064252;28;20086;-65
2022/09/28 02:40:39;;;;;;;6.28;4.43;;;16.70;90.30;;;;;;5071670;28;20033;-65
2022/09/28 02:43:31;;;;;;;5.32;4.60;;;16.70;90.30;;;;;;5070397;28;20020;-65
2022/09/28 02:46:25;;;;;;;5.40;4.20;;;16.70;90.20;;;;;;5064102;28;20029;-65
2022/09/28 02:48:56;;;;;;;5.72;4.40;;;16.70;90.20;;;;;;5065206;28;20527;-65
2022/09/28 02:51:44;;;;;;;;;;;16.70;90.20;;;;;;5070679;28;20146;-65
2022/09/28 02:54:49;;;;;;;6.07;4.53;;;16.80;90.10;;;;;;5071405;28;19912;-65
2022/09/28 02:57:33;;;;;;;5.50;4.50;;;16.80;90.10;;;;;;5060367;28;20060;-65
2022/09/28 03:00:09;;;;;;;5.18;4.18;;;16.70;90.10;;;;;;5072465;28;20032;-65
2022/09/28 03:02:46;;;;;;;5.82;4.18;;;16.70;90.10;;;;;;5076641;28;20021;-65
2022/09/28 03:05:19;;;;;;;5.40;4.60;;;16.70;90.10;;;;;;5065965;28;20098;-65
2022/09/28 03:08:08;;;;;;;5.82;4.75;;;16.70;90.10;;;;;;5067943;28;20039;-65
2022/09/28 03:10:54;;;;;;;6.45;5.15;;;16.80;90.20;;;;;;5070366;28;20082;-65
2022/09/28 03:13:20;;;;;;;6.25;4.78;;;16.80;90.10;;;;;;5070193;28;20021;-65
2022/09/28 03:15:45;;;;;;;5.63;4.63;;;16.80;90.10;;;;;;5070922;28;20107;-65
2022/09/28 03:18:11;;;;;;;5.65;4.90;;;16.80;90.10;;;;;;5071050;28;20028;-65
2022/09/28 03:20:37;;;;;;;5.60;4.75;;;16.80;90.10;;;;;;5071266;28;20035;-66
2022/09/28 03:23:03;;;;;;;6.15;5.00;;;16.80;90.10;;;;;;5067484;28;20387;-65
2022/09/28 03:25:29;;;;;;;6.70;4.97;;;16.80;90.10;;;;;;5070294;28;20028;-65
2022/09/28 03:27:54;;;;;;;6.45;5.30;;;16.80;90.20;;;;;;5071056;28;20082;-65
2022/09/28 03:30:21;;;;;;;5.95;4.75;;;16.80;90.20;;;;;;5070638;28;20037;-65
2022/09/28 03:32:47;;;;;;;8.35;6.10;;;16.80;90.20;;;;;;5071399;28;20115;-65
2022/09/28 03:35:13;;;;;;;7.88;6.05;;;16.80;90.10;;;;;;5071971;28;20029;-65
2022/09/28 03:37:38;;;;;;;8.30;6.30;;;16.80;90.10;;;;;;5074362;28;20499;-65
2022/09/28 03:40:04;;;;;;;7.15;5.28;;;16.80;90.10;;;;;;5066320;28;20027;-65
2022/09/28 03:42:30;;;;;;;7.85;6.15;;;16.80;90.10;;;;;;5071272;28;20063;-65
2022/09/28 03:44:56;;;;;;;8.70;6.57;;;16.70;90.10;;;;;;5070787;28;20529;-65
2022/09/28 03:47:22;;;;;;;6.82;5.50;;;16.70;90.10;;;;;;5071062;28;20029;-65
2022/09/28 03:49:47;;;;;;;7.70;5.85;;;16.80;90.10;;;;;;5067674;28;20064;-65
2022/09/28 03:52:13;;;;;;;6.70;5.18;;;16.80;90.10;;;;;;5071390;28;20080;-65
2022/09/28 03:54:39;;;;;;;5.45;4.75;;;16.80;90.40;;;;;;5065750;28;20488;-65
2022/09/28 03:57:05;;;;;;;7.03;4.82;;;16.80;90.10;;;;;;5070125;28;20149;-65
2022/09/28 03:59:30;;;;;;;6.13;4.70;;;16.80;90.00;;;;;;5071148;28;20020;-65
2022/09/28 04:01:56;;;;;;;6.05;4.70;;;16.80;90.00;;;;;;5070050;28;20039;-65
2022/09/28 04:04:22;;;;;;;8.02;5.93;;;16.80;90.00;;;;;;5067077;28;20116;-65
2022/09/28 04:06:47;;;;;;;8.25;6.25;;;16.80;89.90;;;;;;5064322;28;20064;-65
2022/09/28 04:09:13;;;;;;;9.93;6.90;;;16.80;89.80;;;;;;5067865;28;20112;-65
2022/09/28 04:11:39;;;;;;;9.10;7.05;;;16.80;89.70;;;;;;5066367;28;20037;-65
2022/09/28 04:14:05;;;;;;;8.55;7.22;;;16.80;89.70;;;;;;5070939;28;20047;-65
2022/09/28 04:16:30;;;;;;;8.68;6.72;;;16.80;89.30;;;;;;5068135;28;20127;-65
2022/09/28 04:18:57;;;;;;;8.27;7.28;;;16.70;89.10;;;;;;5067413;28;20378;-65
2022/09/28 04:21:23;;;;;;;9.07;6.63;;;16.70;89.10;;;;;;5065631;28;20487;-65
2022/09/28 04:23:49;;;;;;;8.98;6.75;;;16.70;89.10;;;;;;5066334;28;20041;-65
2022/09/28 04:26:17;;;;;;;8.10;6.13;;;16.70;89.10;;;;;;5069560;28;20029;-65
2022/09/28 04:31:29;;;;;;;9.65;7.07;;;16.70;89.20;;;;;;5070090;28;20177;-65
2022/09/28 04:33:57;;;;;;;7.15;6.10;;;16.70;89.00;;;;;;5070131;28;20539;-65
2022/09/28 04:36:23;;;;;;;7.32;6.13;;;16.80;88.90;;;;;;5070874;28;20021;-65
2022/09/28 04:38:53;;;;;;;7.18;5.63;;;16.70;88.90;;;;;;5062680;28;20487;-65
2022/09/28 04:41:21;;;;;;;8.65;6.50;;;16.70;89.10;;;;;;5069486;28;20060;-65
2022/09/28 04:43:47;;;;;;;7.10;5.43;;;16.70;89.00;;;;;;5070269;28;20032;-65
2022/09/28 04:46:13;;;;;;;7.85;6.07;;;16.70;89.00;;;;;;5067523;28;20483;-65
2022/09/28 04:48:39;;;;;;;8.55;6.97;;;16.70;88.90;;;;;;5070908;28;20036;-65
2022/09/28 04:51:04;;;;;;;9.27;6.40;;;16.70;88.80;;;;;;5069972;28;20052;-65
2022/09/28 04:53:30;;;;;;;8.18;6.32;;;16.70;88.80;;;;;;5068706;28;20101;-65
2022/09/28 04:56:00;;;;;;;8.57;6.80;;;16.80;88.80;;;;;;5068576;28;20040;-65
2022/09/28 04:58:26;;;;;;;7.57;6.00;;;16.80;88.90;;;;;;5069186;28;20028;-65
2022/09/28 05:00:55;;;;;;;8.90;6.45;;;16.80;88.80;;;;;;5078988;28;20410;-65
2022/09/28 05:03:21;;;;;;;7.65;5.80;;;16.80;88.60;;;;;;5067304;28;20070;-65
2022/09/28 05:05:48;;;;;;;8.18;6.60;;;16.80;88.40;;;;;;5066953;28;20032;-65
2022/09/28 05:08:14;;;;;;;8.30;6.75;;;16.80;88.10;;;;;;5068056;28;20048;-65
2022/09/28 05:10:40;;;;;;;7.75;5.55;;;16.80;88.10;;;;;;5067728;28;20735;-65
2022/09/28 05:13:10;;;;;;;7.97;6.03;;;16.80;88.20;;;;;;5069773;28;20048;-65
2022/09/28 05:15:36;;;;;;;8.15;6.25;;;16.80;88.20;;;;;;5070168;28;20020;-65
2022/09/28 05:18:02;;;;;;;7.78;6.18;;;16.80;88.10;;;;;;5068487;28;20489;-65
2022/09/28 05:20:28;;;;;;;7.50;6.32;;;16.80;88.30;;;;;;5063590;28;20021;-65
2022/09/28 05:22:53;;;;;;;6.22;5.32;;;16.80;88.30;;;;;;5067926;28;20052;-65
2022/09/28 05:25:19;;;;;;;7.07;5.55;;;16.80;88.50;;;;;;5068806;28;20393;-65
2022/09/28 05:27:45;;;;;;;7.88;6.43;;;16.80;88.70;;;;;;5069186;28;20442;-65
2022/09/28 05:30:11;;;;;;;8.95;6.78;;;16.80;88.70;;;;;;5070119;28;20422;-65
2022/09/28 05:32:43;;;;;;;8.63;6.60;;;16.80;88.60;;;;;;5067802;28;20063;-65
2022/09/28 05:35:10;;;;;;;8.40;6.68;;;16.90;88.30;;;;;;5069800;28;20498;-65
2022/09/28 05:37:36;;;;;;;8.00;6.63;;;16.90;88.30;;;;;;5065365;28;20041;-65
2022/09/28 05:40:02;;;;;;;7.45;6.35;;;16.90;88.30;;;;;;5060032;28;20025;-65
2022/09/28 05:42:29;;;;;;;8.15;6.07;;;16.90;88.40;;;;;;5067330;28;20128;-65
2022/09/28 05:44:57;;;;;;;7.95;6.45;;;16.90;88.50;;;;;;5064843;28;20020;-65
2022/09/28 05:47:22;;;;;;;8.85;6.65;;;16.90;88.60;;;;;;5063274;28;20041;-65
2022/09/28 05:49:48;;;;;;;9.23;6.07;;;16.90;88.50;;;;;;5063481;28;20024;-65
2022/09/28 05:52:14;;;;;;;8.35;6.63;;;17.00;88.60;;;;;;5065701;28;20651;-65
2022/09/28 05:54:39;;;;;;;9.57;6.65;;;17.00;88.60;;;;;;5065422;28;20036;-65
2022/09/28 05:57:06;;;;;;;8.48;6.93;;;17.00;88.60;;;;;;5067081;28;20082;-65
2022/09/28 05:59:33;;;;;;;8.55;7.15;;;17.00;88.40;;;;;;5067673;28;20349;-65
2022/09/28 06:01:59;;;;;;;10.10;7.50;;;17.00;88.30;;;;;;5071286;28;20026;-65
2022/09/28 06:04:25;;;;;;;9.15;6.95;;;17.00;88.20;;;;;;5070230;28;20099;-65
2022/09/28 06:06:51;;;;;;;10.02;6.95;;;17.10;88.10;;;;;;5070652;28;20029;-65
2022/09/28 06:09:17;;;;;;;9.63;7.10;;;17.10;88.10;;;;;;5063593;28;20060;-65
2022/09/28 06:11:42;;;;;;;10.40;7.55;;;17.10;88.20;;;;;;5069393;28;20079;-66
2022/09/28 06:14:08;;;;;;;9.95;6.95;;;17.10;88.00;;;;;;5070846;28;20028;-65
2022/09/28 06:16:34;;;;;;;8.95;6.93;;;17.20;87.70;;;;;;5061486;28;20279;-65
2022/09/28 06:19:00;;;;;;;8.50;6.63;;;17.20;87.60;;;;;;5067416;28;20441;-65
2022/09/28 06:21:26;;;;;;;8.20;7.07;;;17.20;87.40;;;;;;5067306;28;20027;-65
2022/09/28 06:23:52;;;;;;;9.82;7.28;;;17.30;87.20;;;;;;5064741;28;20495;-65
2022/09/28 06:26:17;;;;;;;9.50;6.60;;;17.30;87.00;;;;;;5065714;28;20028;-65
2022/09/28 06:28:43;;;;;;;8.45;6.30;;;17.30;87.00;;;;;;5063185;28;20035;-65
2022/09/28 06:31:09;;;;;;;9.70;7.20;;;17.30;86.90;;;;;;5060117;28;20028;-65
2022/09/28 06:33:34;;;;;;;9.82;7.05;;;17.30;86.90;;;;;;5061382;28;20609;-65
2022/09/28 06:36:00;;;;;;;8.98;6.60;;;17.30;86.80;;;;;;5064026;28;20120;-65
2022/09/28 06:38:26;;;;;;;8.77;7.20;;;17.30;86.60;;;;;;5063269;28;20028;-65
2022/09/28 06:40:52;;;;;;;9.52;7.28;;;17.30;86.50;;;;;;5064581;28;20470;-65
2022/09/28 06:43:17;;;;;;;9.57;7.32;;;17.40;86.50;;;;;;5060100;28;20123;-65
2022/09/28 06:45:49;;;;;;;11.55;8.90;;;17.40;86.60;;;;;;5058916;28;20029;-65
2022/09/28 06:48:15;;;;;;;10.80;7.82;;;17.40;86.40;;;;;;5063470;28;20029;-65
2022/09/28 06:50:41;;;;;;;11.48;8.43;;;17.40;86.30;;;;;;5064009;28;20031;-66
2022/09/28 06:53:10;;;;;;;10.18;8.10;;;17.40;86.30;;;;;;5062670;28;20103;-63
2022/09/28 06:55:45;;;;;;;10.93;7.63;;;17.40;86.30;;;;;;5069276;28;20017;-63
2022/09/28 06:58:13;;;;;;;9.80;7.53;;;17.50;86.20;;;;;;5066010;28;20085;-63
2022/09/28 07:00:39;;;;;;;9.68;6.65;;;17.50;86.40;;;;;;5066084;28;20032;-63
2022/09/28 07:03:10;;;;;;;9.93;7.10;;;17.50;86.30;;;;;;5066160;28;20491;-63
2022/09/28 07:05:36;;;;;;;9.03;6.73;;;17.50;86.10;;;;;;5064100;28;20036;-63
2022/09/28 07:08:03;;;;;;;9.77;7.10;;;17.50;85.90;;;;;;5060036;28;20382;-63
2022/09/28 07:10:30;;;;;;;10.15;7.25;;;17.60;85.90;;;;;;5063630;28;20031;-63
2022/09/28 07:13:03;;;;;;;9.95;7.07;;;17.60;85.70;;;;;;5061332;28;20032;-63
2022/09/28 07:15:29;;;;;;;8.57;6.72;;;17.60;85.70;;;;;;5074743;28;21846;-63
2022/09/28 07:17:57;;;;;;;8.88;7.05;;;17.70;85.50;;;;;;5056008;28;20570;-63
2022/09/28 07:20:24;;;;;;;9.63;7.30;;;17.70;85.20;;;;;;5051788;28;20028;-63
2022/09/28 07:22:54;;;;;;;9.32;6.97;;;17.70;85.20;;;;;;5053340;28;20109;-64
2022/09/28 07:25:20;;;;;;;10.57;7.20;;;17.70;85.10;;;;;;5051722;28;20024;-65
2022/09/28 07:27:46;;;;;;;9.10;7.18;;;17.70;84.90;;;;;;5057708;28;20021;-64
2022/09/28 07:30:12;;;;;;;8.63;6.75;;;17.80;84.70;;;;;;5048968;28;20055;-64
2022/09/28 07:32:39;;;;;;;9.43;7.13;;;17.80;84.70;;;;;;5051381;28;20488;-64
2022/09/28 07:35:07;;;;;;;8.45;6.85;;;17.80;84.50;;;;;;5052820;28;20035;-64
2022/09/28 07:37:34;;;;;;;9.00;7.15;;;17.80;84.50;;;;;;5052177;28;20033;-64
2022/09/28 07:42:46;;;;;;;9.25;7.03;;;17.80;84.20;;;;;;5051832;28;20099;-64
2022/09/28 07:45:11;;;;;;;9.48;7.28;;;17.90;84.40;;;;;;5046998;28;20028;-63
2022/09/28 07:47:37;;;;;;;10.90;8.05;;;17.90;84.50;;;;;;5042898;28;20127;-64
2022/09/28 07:50:03;;;;;;;8.38;6.40;;;18.00;84.20;;;;;;5049090;28;20037;-64
2022/09/28 07:52:28;;;;;;;10.20;7.95;;;18.10;84.20;;;;;;5052345;28;20103;-63
2022/09/28 07:54:56;;;;;;;9.30;7.35;;;18.20;84.00;;;;;;5052623;28;20031;-63
2022/09/28 07:57:22;;;;;;;8.23;6.35;;;18.20;83.60;;;;;;5042564;28;20214;-64
2022/09/28 07:59:49;;;;;;;9.60;7.30;;;18.30;83.40;;;;;;5045673;28;20044;-64
2022/09/28 08:02:19;;;;;;;9.43;7.55;;;18.30;83.00;;;;;;5046163;28;20089;-64
2022/09/28 08:04:45;;;;;;;8.07;6.40;;;18.40;82.70;;;;;;5053938;28;20119;-64
2022/09/28 08:07:11;;;;;;;8.40;6.85;;;18.40;82.60;;;;;;5050600;28;20021;-64
2022/09/28 08:09:37;;;;;;;8.90;6.30;;;18.50;82.30;;;;;;5051901;28;20070;-64
2022/09/28 08:12:04;;;;;;;10.82;7.40;;;18.60;82.10;;;;;;5045742;28;20119;-64
2022/09/28 08:14:33;;;;;;;11.13;8.43;;;18.70;81.90;;;;;;5047248;28;20507;-64
2022/09/28 08:16:59;;;;;;;10.07;7.40;;;18.70;81.70;;;;;;5049443;28;20292;-63
2022/09/28 08:19:25;;;;;;;12.50;9.63;;;18.70;81.70;;;;;;5048262;28;20036;-64
2022/09/28 08:21:51;;;;;;;11.95;9.18;;;18.80;81.30;;;;;;5046240;28;20036;-63
2022/09/28 08:24:17;;;;;;;11.55;9.50;;;18.80;81.10;;;;;;5047347;28;20051;-63
2022/09/28 08:26:43;;;;;;;11.45;9.32;;;18.70;80.90;;;;;;5047402;28;20024;-65
2022/09/28 08:29:10;;;;;;;12.43;8.57;;;18.70;80.80;;;;;;5050826;28;20035;-64
2022/09/28 08:31:35;;;;;;;12.85;9.55;;;18.70;81.40;;;;;;5046769;28;20173;-64
2022/09/28 08:34:01;;;;;;;13.57;10.27;;;18.60;80.50;;;;;;5047786;28;20029;-64
2022/09/28 08:36:27;;;;;;;12.70;9.65;;;18.60;80.40;;;;;;5035925;28;20036;-64
2022/09/28 08:38:53;;;;;;;10.75;8.25;;;18.50;80.40;;;;;;5038640;28;20082;-64
2022/09/28 08:41:32;;;;;;;10.02;8.23;;;18.40;80.70;;;;;;5042885;28;20054;-64
2022/09/28 08:44:11;;;;;;;12.52;9.60;;;18.30;81.50;;;;;;5050068;28;20040;-65
2022/09/28 08:46:50;;;;;;;10.52;8.80;;;18.30;80.80;;;;;;5045528;28;20037;-64
2022/09/28 08:49:25;;;;;;;11.00;8.85;;;18.20;80.90;;;;;;5047057;28;20733;-64
2022/09/28 08:52:04;;;;;;;10.55;8.25;;;18.10;81.10;;;;;;5042210;28;20032;-64
2022/09/28 08:54:36;;;;;;;11.10;8.13;;;18.10;81.30;;;;;;5051443;28;20024;-64
2022/09/28 08:57:10;;;;;;;10.23;7.10;;;18.10;81.50;;;;;;5045351;28;20032;-64
2022/09/28 08:59:45;;;;;;;11.48;8.57;;;18.00;81.50;;;;;;5041936;28;20606;-64
2022/09/28 09:02:19;;;;;;;9.50;8.20;;;18.00;81.60;;;;;;5039989;28;20036;-63
2022/09/28 09:04:44;;;;;;;10.77;8.40;;;18.00;81.70;;;;;;5040663;28;20076;-63
2022/09/28 09:07:23;;;;;;;10.27;8.30;;;18.00;81.70;;;;;;5042644;28;20133;-64
2022/09/28 09:09:51;;;;;;;9.70;6.93;;;17.90;81.60;;;;;;5037611;28;20021;-63
2022/09/28 09:12:38;;;;;;;10.10;8.25;;;17.90;81.60;;;;;;5041237;28;20109;-63
2022/09/28 09:15:38;;;;;;;9.80;7.32;;;17.90;82.00;;;;;;5037240;28;20605;-63
2022/09/28 09:18:10;;;;;;;8.77;6.70;;;17.90;82.10;;;;;;5036434;28;20032;-64
2022/09/28 09:20:55;;;;;;;9.02;6.78;;;17.80;82.10;;;;;;5042228;28;20494;-63
2022/09/28 09:23:46;;;;;;;9.05;6.50;;;17.80;82.20;;;;;;5046758;28;20029;-63
2022/09/28 09:26:15;;;;;;;9.07;7.40;;;17.90;82.40;;;;;;5041365;28;20036;-63
2022/09/28 09:29:02;;;;;;;8.70;6.38;;;17.90;82.60;;;;;;5041011;28;20045;-64
2022/09/28 09:31:49;;;;;;;8.95;7.20;;;18.00;82.60;;;;;;5041571;28;20037;-63
2022/09/28 09:34:42;;;;;;;9.40;7.43;;;18.10;82.80;;;;;;5043170;28;20807;-64
2022/09/28 09:37:08;;;;;;;8.50;6.90;;;18.10;82.40;;;;;;5047461;28;20047;-65
2022/09/28 09:39:59;;;;;;;8.13;6.63;;;18.10;82.30;;;;;;5046887;28;20036;-64
2022/09/28 09:42:48;;;;;;;8.27;6.78;;;18.00;82.10;;;;;;5036701;28;20059;-64
2022/09/28 09:45:50;;;;;;;8.93;6.55;;;18.00;82.30;;;;;;5037192;28;20025;-64
2022/09/28 09:48:28;;;;;;;9.15;6.78;;;18.00;82.30;;;;;;5044739;28;20036;-64
2022/09/28 09:51:17;;;;;;;8.65;6.35;;;18.00;82.20;;;;;;5043331;28;20077;-64
2022/09/28 09:54:00;;;;;;;9.73;6.88;;;17.90;82.30;;;;;;5040546;28;20625;-64
2022/09/28 09:57:03;;;;;;;8.40;6.63;;;17.90;82.20;;;;;;5038462;28;20039;-63
2022/09/28 09:59:33;;;;;;;7.95;5.97;;;18.00;82.40;;;;;;5040354;28;20415;-63
2022/09/28 10:02:21;;;;;;;6.93;5.97;;;17.90;82.40;;;;;;5041684;28;20037;-64
2022/09/28 10:04:48;;;;;;;6.95;5.57;;;18.00;82.40;;;;;;5039468;28;20108;-63
2022/09/28 10:07:32;;;;;;;8.35;6.32;;;18.00;82.60;;;;;;5049732;28;20035;-63
2022/09/28 10:10:01;;;;;;;8.30;6.60;;;18.10;82.50;;;;;;5044704;28;20504;-64
2022/09/28 10:12:27;;;;;;;7.25;5.90;;;18.10;82.20;;;;;;5048728;28;20025;-64
2022/09/28 10:14:54;;;;;;;7.07;5.43;;;18.20;81.80;;;;;;5041879;28;20017;-63
2022/09/28 10:17:25;;;;;;;6.93;5.63;;;18.20;81.60;;;;;;5042457;28;20036;-64
2022/09/28 10:19:52;;;;;;;6.32;5.22;;;18.20;81.40;;;;;;5048532;28;20268;-63
2022/09/28 10:22:23;;;;;;;8.07;6.50;;;18.20;81.30;;;;;;5049800;28;20046;-64
2022/09/28 10:24:53;;;;;;;10.43;6.15;;;18.20;80.60;;;;;;5043549;28;20438;-64
2022/09/28 10:27:24;;;;;;;7.93;5.60;;;18.20;80.70;;;;;;5046459;28;20047;-64
2022/09/28 10:30:10;;;;;;;8.05;6.45;;;18.20;80.80;;;;;;5047505;28;20234;-64
2022/09/28 10:32:40;;;;;;;7.38;5.82;;;18.20;80.70;;;;;;5047039;28;20125;-64
2022/09/28 10:35:17;;;;;;;6.93;5.60;;;18.20;80.80;;;;;;5047525;28;20021;-65
2022/09/28 10:37:56;;;;;;;6.72;5.35;;;18.20;80.90;;;;;;5044463;28;20033;-65
2022/09/28 10:41:08;;;;;;;6.93;5.15;;;18.30;80.80;;;;;;5045825;28;20037;-65
2022/09/28 10:43:37;;;;;;;7.18;5.40;;;18.40;80.60;;;;;;5010420;28;20066;-64
2022/09/28 10:46:05;;;;;;;7.65;6.18;;;18.40;80.10;;;;;;5017644;28;20480;-64
2022/09/28 10:48:44;;;;;;;7.30;5.88;;;18.40;79.70;;;;;;5034205;28;20040;-64
2022/09/28 10:51:10;;;;;;;8.25;6.28;;;18.40;79.00;;;;;;5050137;28;20021;-65
2022/09/28 10:53:37;;;;;;;7.70;6.55;;;18.30;78.90;;;;;;5046817;28;20051;-64
2022/09/28 10:56:26;;;;;;;8.77;6.50;;;18.20;78.90;;;;;;5050330;28;20143;-65
2022/09/28 10:58:51;;;;;;;7.45;6.10;;;18.20;78.80;;;;;;5044194;28;20042;-67
2022/09/28 11:01:24;;;;;;;7.78;5.93;;;18.10;79.00;;;;;;5032690;28;20667;-64
2022/09/28 11:04:03;;;;;;;7.80;6.05;;;18.10;79.00;;;;;;5047094;28;20059;-64
2022/09/28 11:06:37;;;;;;;8.10;6.50;;;18.10;79.10;;;;;;5047321;28;20043;-64
2022/09/28 11:09:18;;;;;;;7.25;5.35;;;18.10;79.20;;;;;;5051006;28;20031;-64
2022/09/28 11:11:44;;;;;;;8.23;5.65;;;18.10;79.60;;;;;;5049265;28;20043;-64
2022/09/28 11:14:37;;;;;;;7.03;5.78;;;18.10;79.70;;;;;;5054551;28;20028;-65
2022/09/28 11:17:25;;;;;;;6.57;5.38;;;18.10;79.60;;;;;;5044766;28;20761;-67
2022/09/28 11:19:52;;;;;;;6.30;5.15;;;18.10;79.70;;;;;;5047346;28;20036;-66
2022/09/28 11:22:26;;;;;;;6.80;5.20;;;18.10;80.00;;;;;;5054474;28;20028;-66
2022/09/28 11:25:10;;;;;;;6.78;5.05;;;18.10;79.90;;;;;;5050830;28;20059;-65
2022/09/28 11:27:36;;;;;;;7.93;5.40;;;18.10;79.80;;;;;;5052415;28;20090;-67
2022/09/28 11:30:02;;;;;;;7.07;5.78;;;18.10;79.70;;;;;;5047871;28;20021;-66
2022/09/28 11:32:38;;;;;;;6.70;5.28;;;18.10;79.80;;;;;;5049217;28;20016;-65
2022/09/28 11:35:04;;;;;;;6.13;5.05;;;18.20;80.10;;;;;;5049313;28;20157;-66
2022/09/28 11:37:36;;;;;;;6.28;4.90;;;18.20;80.20;;;;;;5049684;28;20119;-66
2022/09/28 11:40:26;;;;;;;6.47;5.05;;;18.20;80.10;;;;;;5046675;28;20603;-69
2022/09/28 11:43:00;;;;;;;7.07;5.57;;;18.30;80.30;;;;;;5040503;28;20151;-65
2022/09/28 11:45:52;;;;;;;7.00;5.28;;;18.30;80.30;;;;;;5034889;28;20102;-64
2022/09/28 11:48:27;;;;;;;6.10;4.90;;;18.30;80.20;;;;;;5037991;28;20033;-66
2022/09/28 11:51:08;;;;;;;7.10;5.30;;;18.30;80.30;;;;;;5043738;28;21634;-65
2022/09/28 11:53:42;;;;;;;6.70;5.13;;;18.30;80.00;;;;;;5045742;28;20039;-65
2022/09/28 11:56:45;;;;;;;6.25;4.82;;;18.20;80.00;;;;;;5041718;28;20040;-65
2022/09/28 11:59:19;;;;;;;6.93;5.10;;;18.20;80.10;;;;;;5003747;28;20033;-65
2022/09/28 12:01:56;;;;;;;7.65;5.47;;;18.20;80.40;;;;;;5043967;28;20036;-65
2022/09/28 12:04:45;;;;;;;7.13;5.93;;;18.10;80.00;;;;;;5047052;28;20024;-65
2022/09/28 12:07:37;;;;;;;6.75;5.22;;;18.00;79.80;;;;;;5044374;28;20024;-64
2022/09/28 12:10:02;;;;;;;7.18;5.13;;;17.90;80.60;;;;;;5046656;28;20037;-66
2022/09/28 12:12:49;;;;;;;6.65;5.55;;;17.80;80.10;;;;;;5043605;28;20456;-64
2022/09/28 12:15:43;;;;;;;6.57;5.60;;;17.70;79.90;;;;;;5049348;28;20035;-65
2022/09/28 12:18:23;;;;;;;6.47;5.00;;;17.70;80.20;;;;;;5045675;28;20071;-65
2022/09/28 12:21:07;;;;;;;6.72;5.55;;;17.60;80.30;;;;;;5044395;28;20111;-65
2022/09/28 12:23:35;;;;;;;6.72;5.20;;;17.50;81.10;;;;;;5037536;28;20025;-65
2022/09/28 12:26:23;;;;;;;6.82;5.47;;;17.50;80.70;;;;;;5044544;28;20241;-64
2022/09/28 12:28:52;;;;;;;7.43;6.10;;;17.40;80.70;;;;;;5046831;28;20121;-65
2022/09/28 12:31:36;;;;;;;7.28;5.47;;;17.40;80.90;;;;;;5040913;28;20020;-65
2022/09/28 12:34:02;;;;;;;6.65;5.43;;;17.30;80.70;;;;;;5041103;28;20131;-65
2022/09/28 12:36:52;;;;;;;6.13;5.03;;;17.30;81.00;;;;;;5042606;28;20060;-65
2022/09/28 12:39:25;;;;;;;6.93;5.72;;;17.20;81.00;;;;;;5037716;28;20082;-65
2022/09/28 12:42:13;;;;;;;7.97;6.05;;;17.20;81.30;;;;;;5041502;28;20445;-65
2022/09/28 12:44:48;;;;;;;8.32;6.35;;;17.20;81.40;;;;;;5032516;28;20028;-65
2022/09/28 12:47:32;;;;;;;6.28;5.43;;;17.10;81.50;;;;;;5042340;28;20040;-65
2022/09/28 12:50:16;;;;;;;7.70;6.20;;;17.10;81.60;;;;;;5061551;28;20052;-65
2022/09/28 12:53:02;;;;;;;6.55;5.15;;;17.00;81.50;;;;;;5042090;28;20107;-65
2022/09/28 12:55:56;;;;;;;6.90;5.45;;;17.00;81.50;;;;;;5044146;28;20031;-65
2022/09/28 12:59:03;;;;;;;7.30;5.75;;;16.90;81.60;;;;;;5044430;28;20448;-65
2022/09/28 13:02:00;;;;;;;7.10;5.35;;;16.90;81.70;;;;;;5036006;28;20029;-65
2022/09/28 13:04:56;;;;;;;7.13;5.40;;;16.90;81.70;;;;;;5046500;28;20491;-65
2022/09/28 13:07:39;;;;;;;6.75;5.50;;;16.80;81.90;;;;;;5048591;28;20032;-65
2022/09/28 13:10:16;;;;;;;7.63;6.18;;;16.80;82.20;;;;;;5048646;28;20031;-65
2022/09/28 13:13:03;;;;;;;7.93;5.97;;;16.70;82.30;;;;;;5049963;28;20527;-65
2022/09/28 13:15:33;;;;;;;8.40;5.90;;;16.70;82.50;;;;;;5049157;28;20046;-66
2022/09/28 13:18:02;;;;;;;8.13;6.10;;;16.70;82.90;;;;;;5053269;28;20037;-64